Southport, Illinois
Current Conditions -  °F | °C
As of 11:03 PM on Saturday 22 Nov 2014 (Local Time) from KPIA Reporting Station
Overcast Overcast  
Wind Chill: 53°   Ceiling: 900
Heat Index: 53°   Visibility: 8mi
Dew Point: 47°   Wind: 12mph
Humidity: 80%   Direction: 190°S
Pressure: 29.83"   Gusts: NA
Location:  40.8318°N, 89.8586°W
Report Text: KPIA 230503Z 19010KT 8SM OVC009 12/08 A2983 RMK AO2 T01170083
Loading
Personal Weather Stations






























Interactive Weather Map New forecast layout! Learn more

10-Day Weather Forecast

Advertisements
Track Severe Weather on mobile